sensor_id;sensor_type;location;lat;lon;timestamp;P1;durP1;ratioP1;P2;durP2;ratioP2
70433;SDS011;57876;47.792;12.960;2023-02-28T00:02:09;4.35;;;0.93;;
70433;SDS011;57876;47.792;12.960;2023-02-28T00:04:34;4.20;;;1.07;;
70433;SDS011;57876;47.792;12.960;2023-02-28T00:06:58;4.20;;;0.97;;
70433;SDS011;57876;47.792;12.960;2023-02-28T00:09:22;3.97;;;0.80;;
70433;SDS011;57876;47.792;12.960;2023-02-28T00:11:47;3.80;;;0.90;;
70433;SDS011;57876;47.792;12.960;2023-02-28T00:14:11;4.20;;;1.07;;
70433;SDS011;57876;47.792;12.960;2023-02-28T00:16:35;4.20;;;1.00;;
70433;SDS011;57876;47.792;12.960;2023-02-28T00:19:00;4.30;;;1.00;;
70433;SDS011;57876;47.792;12.960;2023-02-28T00:21:24;4.43;;;0.90;;
70433;SDS011;57876;47.792;12.960;2023-02-28T00:23:49;4.65;;;1.20;;
70433;SDS011;57876;47.792;12.960;2023-02-28T00:26:13;4.53;;;0.90;;
70433;SDS011;57876;47.792;12.960;2023-02-28T00:28:37;4.83;;;1.10;;
70433;SDS011;57876;47.792;12.960;2023-02-28T00:31:02;4.27;;;0.90;;
70433;SDS011;57876;47.792;12.960;2023-02-28T00:33:27;4.47;;;0.90;;
70433;SDS011;57876;47.792;12.960;2023-02-28T00:35:52;4.60;;;1.10;;
70433;SDS011;57876;47.792;12.960;2023-02-28T00:38:16;4.43;;;1.00;;
70433;SDS011;57876;47.792;12.960;2023-02-28T00:40:43;4.00;;;0.90;;
70433;SDS011;57876;47.792;12.960;2023-02-28T00:43:08;4.32;;;1.15;;
70433;SDS011;57876;47.792;12.960;2023-02-28T00:45:32;4.33;;;0.90;;
70433;SDS011;57876;47.792;12.960;2023-02-28T00:47:57;3.77;;;0.83;;
70433;SDS011;57876;47.792;12.960;2023-02-28T00:50:21;4.10;;;1.03;;
70433;SDS011;57876;47.792;12.960;2023-02-28T00:52:46;3.75;;;0.90;;
70433;SDS011;57876;47.792;12.960;2023-02-28T00:55:11;4.33;;;1.00;;
70433;SDS011;57876;47.792;12.960;2023-02-28T00:57:35;4.43;;;1.02;;
70433;SDS011;57876;47.792;12.960;2023-02-28T01:00:00;4.00;;;1.00;;
70433;SDS011;57876;47.792;12.960;2023-02-28T01:02:25;4.05;;;0.90;;
70433;SDS011;57876;47.792;12.960;2023-02-28T01:04:49;4.30;;;0.93;;
70433;SDS011;57876;47.792;12.960;2023-02-28T01:07:14;4.40;;;1.00;;
70433;SDS011;57876;47.792;12.960;2023-02-28T01:09:38;3.95;;;0.98;;
70433;SDS011;57876;47.792;12.960;2023-02-28T01:12:03;4.23;;;1.10;;
70433;SDS011;57876;47.792;12.960;2023-02-28T01:14:27;4.20;;;0.93;;
70433;SDS011;57876;47.792;12.960;2023-02-28T01:16:52;4.23;;;0.90;;
70433;SDS011;57876;47.792;12.960;2023-02-28T01:19:16;3.85;;;0.90;;
70433;SDS011;57876;47.792;12.960;2023-02-28T01:21:40;4.27;;;1.07;;
70433;SDS011;57876;47.792;12.960;2023-02-28T01:24:05;4.40;;;1.10;;
70433;SDS011;57876;47.792;12.960;2023-02-28T01:26:29;3.75;;;1.00;;
70433;SDS011;57876;47.792;12.960;2023-02-28T01:28:55;4.87;;;0.97;;
70433;SDS011;57876;47.792;12.960;2023-02-28T01:31:19;4.63;;;1.20;;
70433;SDS011;57876;47.792;12.960;2023-02-28T01:33:45;4.20;;;1.00;;
70433;SDS011;57876;47.792;12.960;2023-02-28T01:36:11;4.43;;;1.00;;
70433;SDS011;57876;47.792;12.960;2023-02-28T01:38:38;3.65;;;0.90;;
70433;SDS011;57876;47.792;12.960;2023-02-28T01:41:03;3.83;;;0.98;;
70433;SDS011;57876;47.792;12.960;2023-02-28T01:43:29;3.90;;;0.90;;
70433;SDS011;57876;47.792;12.960;2023-02-28T01:45:56;3.72;;;0.90;;
70433;SDS011;57876;47.792;12.960;2023-02-28T01:48:24;4.17;;;1.03;;
70433;SDS011;57876;47.792;12.960;2023-02-28T01:50:55;4.15;;;1.08;;
70433;SDS011;57876;47.792;12.960;2023-02-28T01:53:25;4.28;;;0.95;;
70433;SDS011;57876;47.792;12.960;2023-02-28T01:55:54;4.63;;;1.00;;
70433;SDS011;57876;47.792;12.960;2023-02-28T01:58:20;4.00;;;1.00;;
70433;SDS011;57876;47.792;12.960;2023-02-28T02:00:44;4.37;;;0.90;;
70433;SDS011;57876;47.792;12.960;2023-02-28T02:03:10;4.73;;;1.40;;
70433;SDS011;57876;47.792;12.960;2023-02-28T02:05:38;4.13;;;1.15;;
70433;SDS011;57876;47.792;12.960;2023-02-28T02:08:05;4.10;;;1.00;;
70433;SDS011;57876;47.792;12.960;2023-02-28T02:10:34;4.60;;;1.05;;
70433;SDS011;57876;47.792;12.960;2023-02-28T02:27:03;4.38;;;1.00;;
70433;SDS011;57876;47.792;12.960;2023-02-28T02:37:43;4.72;;;1.10;;
70433;SDS011;57876;47.792;12.960;2023-02-28T02:40:14;4.85;;;1.05;;
70433;SDS011;57876;47.792;12.960;2023-02-28T02:42:47;4.23;;;1.10;;
70433;SDS011;57876;47.792;12.960;2023-02-28T02:45:28;3.70;;;0.85;;
70433;SDS011;57876;47.792;12.960;2023-02-28T02:47:59;3.90;;;1.00;;
70433;SDS011;57876;47.792;12.960;2023-02-28T02:50:29;4.40;;;1.10;;
70433;SDS011;57876;47.792;12.960;2023-02-28T02:52:59;4.30;;;1.10;;
70433;SDS011;57876;47.792;12.960;2023-02-28T02:55:29;4.10;;;1.03;;
70433;SDS011;57876;47.792;12.960;2023-02-28T02:57:59;3.90;;;0.90;;
70433;SDS011;57876;47.792;12.960;2023-02-28T03:00:31;3.90;;;1.00;;
70433;SDS011;57876;47.792;12.960;2023-02-28T03:03:17;4.70;;;1.10;;
70433;SDS011;57876;47.792;12.960;2023-02-28T03:05:45;4.32;;;0.90;;
70433;SDS011;57876;47.792;12.960;2023-02-28T03:08:12;4.40;;;1.10;;
70433;SDS011;57876;47.792;12.960;2023-02-28T03:10:38;3.90;;;1.00;;
70433;SDS011;57876;47.792;12.960;2023-02-28T03:24:21;3.72;;;0.82;;
70433;SDS011;57876;47.792;12.960;2023-02-28T03:27:04;3.90;;;0.95;;
70433;SDS011;57876;47.792;12.960;2023-02-28T03:29:34;4.60;;;0.97;;
70433;SDS011;57876;47.792;12.960;2023-02-28T03:32:12;3.80;;;0.93;;
70433;SDS011;57876;47.792;12.960;2023-02-28T03:34:50;4.28;;;0.90;;
70433;SDS011;57876;47.792;12.960;2023-02-28T03:37:20;4.10;;;1.00;;
70433;SDS011;57876;47.792;12.960;2023-02-28T03:39:53;4.53;;;0.80;;
70433;SDS011;57876;47.792;12.960;2023-02-28T03:42:26;4.00;;;0.80;;
70433;SDS011;57876;47.792;12.960;2023-02-28T03:44:57;4.43;;;1.10;;
70433;SDS011;57876;47.792;12.960;2023-02-28T03:47:26;4.45;;;0.90;;
70433;SDS011;57876;47.792;12.960;2023-02-28T03:50:08;5.22;;;1.10;;
70433;SDS011;57876;47.792;12.960;2023-02-28T03:52:39;4.25;;;1.00;;
70433;SDS011;57876;47.792;12.960;2023-02-28T03:55:10;3.83;;;1.00;;
70433;SDS011;57876;47.792;12.960;2023-02-28T03:57:38;4.10;;;1.15;;
70433;SDS011;57876;47.792;12.960;2023-02-28T04:00:12;4.13;;;1.00;;
70433;SDS011;57876;47.792;12.960;2023-02-28T04:02:42;4.45;;;1.10;;
70433;SDS011;57876;47.792;12.960;2023-02-28T04:05:07;3.93;;;1.00;;
70433;SDS011;57876;47.792;12.960;2023-02-28T04:07:32;4.53;;;1.10;;
70433;SDS011;57876;47.792;12.960;2023-02-28T04:09:57;4.07;;;1.00;;
70433;SDS011;57876;47.792;12.960;2023-02-28T04:12:22;4.07;;;0.90;;
70433;SDS011;57876;47.792;12.960;2023-02-28T04:14:47;4.40;;;1.08;;
70433;SDS011;57876;47.792;12.960;2023-02-28T04:17:11;4.30;;;1.20;;
70433;SDS011;57876;47.792;12.960;2023-02-28T04:19:35;4.10;;;1.20;;
70433;SDS011;57876;47.792;12.960;2023-02-28T04:22:00;4.60;;;1.10;;
70433;SDS011;57876;47.792;12.960;2023-02-28T04:24:25;4.47;;;1.10;;
70433;SDS011;57876;47.792;12.960;2023-02-28T04:26:52;4.00;;;0.90;;
70433;SDS011;57876;47.792;12.960;2023-02-28T04:29:21;5.07;;;1.38;;
70433;SDS011;57876;47.792;12.960;2023-02-28T04:31:49;3.90;;;0.88;;
70433;SDS011;57876;47.792;12.960;2023-02-28T04:34:14;4.45;;;0.93;;
70433;SDS011;57876;47.792;12.960;2023-02-28T04:36:38;3.73;;;0.90;;
70433;SDS011;57876;47.792;12.960;2023-02-28T04:39:09;3.70;;;1.00;;
70433;SDS011;57876;47.792;12.960;2023-02-28T04:41:42;4.07;;;1.00;;
70433;SDS011;57876;47.792;12.960;2023-02-28T04:44:07;4.10;;;1.00;;
70433;SDS011;57876;47.792;12.960;2023-02-28T04:46:36;4.22;;;1.10;;
70433;SDS011;57876;47.792;12.960;2023-02-28T04:49:03;4.00;;;1.00;;
70433;SDS011;57876;47.792;12.960;2023-02-28T04:51:35;4.30;;;0.95;;
70433;SDS011;57876;47.792;12.960;2023-02-28T04:53:59;3.90;;;1.00;;
70433;SDS011;57876;47.792;12.960;2023-02-28T04:56:33;3.97;;;1.00;;
70433;SDS011;57876;47.792;12.960;2023-02-28T04:59:13;4.10;;;1.10;;
70433;SDS011;57876;47.792;12.960;2023-02-28T05:01:40;4.53;;;1.05;;
70433;SDS011;57876;47.792;12.960;2023-02-28T05:04:11;3.90;;;1.00;;
70433;SDS011;57876;47.792;12.960;2023-02-28T05:06:41;3.70;;;0.88;;
70433;SDS011;57876;47.792;12.960;2023-02-28T05:09:07;4.45;;;1.00;;
70433;SDS011;57876;47.792;12.960;2023-02-28T05:11:35;3.92;;;1.00;;
70433;SDS011;57876;47.792;12.960;2023-02-28T05:14:02;3.67;;;0.93;;
70433;SDS011;57876;47.792;12.960;2023-02-28T05:16:45;3.88;;;0.90;;
70433;SDS011;57876;47.792;12.960;2023-02-28T05:19:10;3.78;;;0.88;;
70433;SDS011;57876;47.792;12.960;2023-02-28T05:21:53;4.23;;;1.00;;
70433;SDS011;57876;47.792;12.960;2023-02-28T05:24:19;3.70;;;0.80;;
70433;SDS011;57876;47.792;12.960;2023-02-28T05:26:46;3.85;;;1.00;;
70433;SDS011;57876;47.792;12.960;2023-02-28T05:29:11;3.77;;;0.90;;
70433;SDS011;57876;47.792;12.960;2023-02-28T05:31:35;4.18;;;1.00;;
70433;SDS011;57876;47.792;12.960;2023-02-28T05:34:00;4.13;;;1.00;;
70433;SDS011;57876;47.792;12.960;2023-02-28T05:36:25;4.25;;;1.13;;
70433;SDS011;57876;47.792;12.960;2023-02-28T05:38:50;4.40;;;1.30;;
70433;SDS011;57876;47.792;12.960;2023-02-28T05:41:16;4.20;;;0.98;;
70433;SDS011;57876;47.792;12.960;2023-02-28T05:43:41;3.90;;;0.95;;
70433;SDS011;57876;47.792;12.960;2023-02-28T05:46:06;3.93;;;0.90;;
70433;SDS011;57876;47.792;12.960;2023-02-28T05:48:33;3.95;;;0.90;;
70433;SDS011;57876;47.792;12.960;2023-02-28T05:50:58;4.25;;;1.15;;
70433;SDS011;57876;47.792;12.960;2023-02-28T05:53:23;4.67;;;1.07;;
70433;SDS011;57876;47.792;12.960;2023-02-28T05:55:47;4.50;;;1.10;;
70433;SDS011;57876;47.792;12.960;2023-02-28T05:58:11;4.15;;;0.98;;
70433;SDS011;57876;47.792;12.960;2023-02-28T06:00:36;3.87;;;0.90;;
70433;SDS011;57876;47.792;12.960;2023-02-28T06:03:00;4.10;;;1.10;;
70433;SDS011;57876;47.792;12.960;2023-02-28T06:05:25;4.97;;;1.15;;
70433;SDS011;57876;47.792;12.960;2023-02-28T06:07:50;4.50;;;1.10;;
70433;SDS011;57876;47.792;12.960;2023-02-28T06:10:14;4.30;;;1.00;;
70433;SDS011;57876;47.792;12.960;2023-02-28T06:12:39;4.20;;;1.10;;
70433;SDS011;57876;47.792;12.960;2023-02-28T06:15:07;4.80;;;1.00;;
70433;SDS011;57876;47.792;12.960;2023-02-28T06:17:35;4.33;;;1.23;;
70433;SDS011;57876;47.792;12.960;2023-02-28T06:20:00;4.07;;;1.10;;
70433;SDS011;57876;47.792;12.960;2023-02-28T06:22:24;4.27;;;0.90;;
70433;SDS011;57876;47.792;12.960;2023-02-28T06:24:48;4.20;;;1.07;;
70433;SDS011;57876;47.792;12.960;2023-02-28T06:27:13;4.10;;;0.90;;
70433;SDS011;57876;47.792;12.960;2023-02-28T06:29:37;4.32;;;1.02;;
70433;SDS011;57876;47.792;12.960;2023-02-28T06:32:03;4.30;;;1.20;;
70433;SDS011;57876;47.792;12.960;2023-02-28T06:34:28;4.15;;;1.10;;
70433;SDS011;57876;47.792;12.960;2023-02-28T06:36:52;3.80;;;1.00;;
70433;SDS011;57876;47.792;12.960;2023-02-28T06:39:17;4.03;;;1.00;;
70433;SDS011;57876;47.792;12.960;2023-02-28T06:41:42;4.53;;;0.90;;
70433;SDS011;57876;47.792;12.960;2023-02-28T06:44:27;4.10;;;1.00;;
70433;SDS011;57876;47.792;12.960;2023-02-28T06:46:59;4.95;;;1.20;;
70433;SDS011;57876;47.792;12.960;2023-02-28T06:49:23;4.67;;;1.10;;
70433;SDS011;57876;47.792;12.960;2023-02-28T06:51:48;4.53;;;1.10;;
70433;SDS011;57876;47.792;12.960;2023-02-28T06:54:12;4.30;;;1.00;;
70433;SDS011;57876;47.792;12.960;2023-02-28T06:56:37;4.00;;;1.00;;
70433;SDS011;57876;47.792;12.960;2023-02-28T06:59:04;4.38;;;1.10;;
70433;SDS011;57876;47.792;12.960;2023-02-28T07:01:28;4.28;;;1.00;;
70433;SDS011;57876;47.792;12.960;2023-02-28T07:03:53;4.10;;;1.20;;
70433;SDS011;57876;47.792;12.960;2023-02-28T07:06:19;4.43;;;1.20;;
70433;SDS011;57876;47.792;12.960;2023-02-28T07:08:46;4.10;;;1.00;;
70433;SDS011;57876;47.792;12.960;2023-02-28T07:11:10;4.10;;;1.07;;
70433;SDS011;57876;47.792;12.960;2023-02-28T07:13:35;4.40;;;1.20;;
70433;SDS011;57876;47.792;12.960;2023-02-28T07:16:01;3.88;;;0.90;;
70433;SDS011;57876;47.792;12.960;2023-02-28T07:18:30;4.40;;;1.00;;
70433;SDS011;57876;47.792;12.960;2023-02-28T07:20:55;4.50;;;1.00;;
70433;SDS011;57876;47.792;12.960;2023-02-28T07:23:20;4.03;;;0.90;;
70433;SDS011;57876;47.792;12.960;2023-02-28T07:25:45;4.05;;;0.90;;
70433;SDS011;57876;47.792;12.960;2023-02-28T07:28:09;4.50;;;1.20;;
70433;SDS011;57876;47.792;12.960;2023-02-28T07:30:34;4.20;;;1.10;;
70433;SDS011;57876;47.792;12.960;2023-02-28T07:32:58;4.00;;;1.00;;
70433;SDS011;57876;47.792;12.960;2023-02-28T07:35:22;4.57;;;1.10;;
70433;SDS011;57876;47.792;12.960;2023-02-28T07:37:47;4.53;;;1.10;;
70433;SDS011;57876;47.792;12.960;2023-02-28T07:40:11;5.03;;;1.20;;
70433;SDS011;57876;47.792;12.960;2023-02-28T07:42:37;4.63;;;1.10;;
70433;SDS011;57876;47.792;12.960;2023-02-28T07:45:02;3.90;;;0.93;;
70433;SDS011;57876;47.792;12.960;2023-02-28T07:47:28;4.35;;;1.15;;
70433;SDS011;57876;47.792;12.960;2023-02-28T07:49:53;4.32;;;1.25;;
70433;SDS011;57876;47.792;12.960;2023-02-28T07:52:18;4.07;;;1.10;;
70433;SDS011;57876;47.792;12.960;2023-02-28T07:54:42;4.47;;;1.10;;
70433;SDS011;57876;47.792;12.960;2023-02-28T07:57:06;5.03;;;1.30;;
70433;SDS011;57876;47.792;12.960;2023-02-28T07:59:31;3.93;;;0.93;;
70433;SDS011;57876;47.792;12.960;2023-02-28T08:01:56;4.20;;;1.00;;
70433;SDS011;57876;47.792;12.960;2023-02-28T08:04:21;4.40;;;1.20;;
70433;SDS011;57876;47.792;12.960;2023-02-28T08:06:46;4.67;;;1.30;;
70433;SDS011;57876;47.792;12.960;2023-02-28T08:09:10;4.37;;;1.10;;
70433;SDS011;57876;47.792;12.960;2023-02-28T08:11:35;3.78;;;1.00;;
70433;SDS011;57876;47.792;12.960;2023-02-28T08:14:00;4.27;;;1.20;;
70433;SDS011;57876;47.792;12.960;2023-02-28T08:16:24;4.33;;;1.10;;
70433;SDS011;57876;47.792;12.960;2023-02-28T08:18:52;4.60;;;1.10;;
70433;SDS011;57876;47.792;12.960;2023-02-28T08:21:17;4.60;;;1.10;;
70433;SDS011;57876;47.792;12.960;2023-02-28T08:23:43;4.50;;;1.03;;
70433;SDS011;57876;47.792;12.960;2023-02-28T08:26:07;4.22;;;1.10;;
70433;SDS011;57876;47.792;12.960;2023-02-28T08:28:32;4.60;;;1.30;;
70433;SDS011;57876;47.792;12.960;2023-02-28T08:30:56;4.93;;;1.20;;
70433;SDS011;57876;47.792;12.960;2023-02-28T08:33:22;4.93;;;1.17;;
70433;SDS011;57876;47.792;12.960;2023-02-28T08:35:46;4.20;;;1.20;;
70433;SDS011;57876;47.792;12.960;2023-02-28T08:38:11;4.90;;;1.37;;
70433;SDS011;57876;47.792;12.960;2023-02-28T08:40:35;4.43;;;1.30;;
70433;SDS011;57876;47.792;12.960;2023-02-28T08:42:59;4.50;;;1.17;;
70433;SDS011;57876;47.792;12.960;2023-02-28T08:45:24;4.20;;;1.10;;
70433;SDS011;57876;47.792;12.960;2023-02-28T08:47:48;3.87;;;1.10;;
70433;SDS011;57876;47.792;12.960;2023-02-28T08:50:13;4.30;;;1.17;;
70433;SDS011;57876;47.792;12.960;2023-02-28T08:52:38;4.47;;;1.02;;
70433;SDS011;57876;47.792;12.960;2023-02-28T08:55:03;4.50;;;1.00;;
70433;SDS011;57876;47.792;12.960;2023-02-28T08:57:27;4.07;;;1.20;;
70433;SDS011;57876;47.792;12.960;2023-02-28T08:59:52;4.40;;;1.10;;
70433;SDS011;57876;47.792;12.960;2023-02-28T09:02:16;4.10;;;1.07;;
70433;SDS011;57876;47.792;12.960;2023-02-28T09:04:41;4.30;;;1.20;;
70433;SDS011;57876;47.792;12.960;2023-02-28T09:07:05;5.03;;;1.10;;
70433;SDS011;57876;47.792;12.960;2023-02-28T09:09:30;4.17;;;1.10;;
70433;SDS011;57876;47.792;12.960;2023-02-28T09:11:57;4.90;;;1.20;;
70433;SDS011;57876;47.792;12.960;2023-02-28T09:14:22;4.47;;;1.10;;
70433;SDS011;57876;47.792;12.960;2023-02-28T09:16:46;4.50;;;1.07;;
70433;SDS011;57876;47.792;12.960;2023-02-28T09:19:11;4.25;;;1.10;;
70433;SDS011;57876;47.792;12.960;2023-02-28T09:21:36;4.50;;;1.10;;
70433;SDS011;57876;47.792;12.960;2023-02-28T09:24:00;4.43;;;1.10;;
70433;SDS011;57876;47.792;12.960;2023-02-28T09:26:26;3.87;;;0.97;;
70433;SDS011;57876;47.792;12.960;2023-02-28T09:28:51;5.18;;;1.10;;
70433;SDS011;57876;47.792;12.960;2023-02-28T09:31:19;4.10;;;1.17;;
70433;SDS011;57876;47.792;12.960;2023-02-28T09:33:52;5.05;;;1.20;;
70433;SDS011;57876;47.792;12.960;2023-02-28T09:36:19;4.97;;;1.50;;
70433;SDS011;57876;47.792;12.960;2023-02-28T09:38:44;4.35;;;1.10;;
70433;SDS011;57876;47.792;12.960;2023-02-28T09:41:23;5.00;;;1.20;;
70433;SDS011;57876;47.792;12.960;2023-02-28T09:43:51;4.47;;;1.27;;
70433;SDS011;57876;47.792;12.960;2023-02-28T09:46:27;4.70;;;1.40;;
70433;SDS011;57876;47.792;12.960;2023-02-28T09:49:19;4.70;;;1.20;;
70433;SDS011;57876;47.792;12.960;2023-02-28T09:52:00;4.70;;;1.45;;
70433;SDS011;57876;47.792;12.960;2023-02-28T09:54:30;4.70;;;1.42;;
70433;SDS011;57876;47.792;12.960;2023-02-28T09:56:58;4.80;;;1.50;;
70433;SDS011;57876;47.792;12.960;2023-02-28T10:05:03;5.55;;;1.60;;
70433;SDS011;57876;47.792;12.960;2023-02-28T10:07:37;5.00;;;1.70;;
70433;SDS011;57876;47.792;12.960;2023-02-28T10:10:25;5.33;;;1.70;;
70433;SDS011;57876;47.792;12.960;2023-02-28T10:12:53;4.93;;;1.48;;
70433;SDS011;57876;47.792;12.960;2023-02-28T10:15:23;5.35;;;1.50;;
70433;SDS011;57876;47.792;12.960;2023-02-28T10:17:51;5.57;;;1.80;;
70433;SDS011;57876;47.792;12.960;2023-02-28T10:20:21;5.13;;;1.70;;
70433;SDS011;57876;47.792;12.960;2023-02-28T10:23:02;5.70;;;1.83;;
70433;SDS011;57876;47.792;12.960;2023-02-28T10:25:33;5.25;;;1.70;;
70433;SDS011;57876;47.792;12.960;2023-02-28T10:28:21;5.57;;;2.00;;
70433;SDS011;57876;47.792;12.960;2023-02-28T10:30:46;5.38;;;1.70;;
70433;SDS011;57876;47.792;12.960;2023-02-28T10:33:28;5.07;;;1.73;;
70433;SDS011;57876;47.792;12.960;2023-02-28T10:35:54;6.70;;;1.80;;
70433;SDS011;57876;47.792;12.960;2023-02-28T10:38:23;5.20;;;1.70;;
70433;SDS011;57876;47.792;12.960;2023-02-28T10:40:50;5.43;;;1.80;;
70433;SDS011;57876;47.792;12.960;2023-02-28T10:45:51;5.40;;;1.75;;
70433;SDS011;57876;47.792;12.960;2023-02-28T10:48:26;6.10;;;1.90;;
70433;SDS011;57876;47.792;12.960;2023-02-28T10:50:54;5.90;;;1.85;;
70433;SDS011;57876;47.792;12.960;2023-02-28T10:55:49;5.20;;;1.70;;
70433;SDS011;57876;47.792;12.960;2023-02-28T10:58:55;5.43;;;1.77;;
70433;SDS011;57876;47.792;12.960;2023-02-28T11:03:56;5.40;;;1.90;;
70433;SDS011;57876;47.792;12.960;2023-02-28T11:06:25;5.60;;;1.90;;
70433;SDS011;57876;47.792;12.960;2023-02-28T11:08:54;5.30;;;1.67;;
70433;SDS011;57876;47.792;12.960;2023-02-28T11:11:20;5.10;;;1.52;;
70433;SDS011;57876;47.792;12.960;2023-02-28T11:13:48;5.95;;;1.80;;
70433;SDS011;57876;47.792;12.960;2023-02-28T11:16:17;5.28;;;1.75;;
70433;SDS011;57876;47.792;12.960;2023-02-28T11:18:54;5.30;;;1.70;;
70433;SDS011;57876;47.792;12.960;2023-02-28T11:21:30;5.57;;;1.80;;
70433;SDS011;57876;47.792;12.960;2023-02-28T11:24:04;5.05;;;1.70;;
70433;SDS011;57876;47.792;12.960;2023-02-28T11:26:49;5.38;;;1.65;;
70433;SDS011;57876;47.792;12.960;2023-02-28T11:29:32;5.60;;;1.90;;
70433;SDS011;57876;47.792;12.960;2023-02-28T11:32:18;4.90;;;1.60;;
70433;SDS011;57876;47.792;12.960;2023-02-28T11:34:44;5.28;;;1.80;;
70433;SDS011;57876;47.792;12.960;2023-02-28T11:37:12;5.05;;;1.73;;
70433;SDS011;57876;47.792;12.960;2023-02-28T11:39:39;5.18;;;1.70;;
70433;SDS011;57876;47.792;12.960;2023-02-28T11:47:47;5.20;;;1.67;;
70433;SDS011;57876;47.792;12.960;2023-02-28T11:50:29;5.00;;;1.58;;
70433;SDS011;57876;47.792;12.960;2023-02-28T11:53:00;5.18;;;1.80;;
70433;SDS011;57876;47.792;12.960;2023-02-28T12:03:51;5.05;;;1.67;;
70433;SDS011;57876;47.792;12.960;2023-02-28T12:15:26;5.30;;;1.50;;
70433;SDS011;57876;47.792;12.960;2023-02-28T12:23:26;5.20;;;1.80;;
70433;SDS011;57876;47.792;12.960;2023-02-28T12:29:05;5.10;;;1.70;;
70433;SDS011;57876;47.792;12.960;2023-02-28T12:32:01;4.90;;;1.60;;
70433;SDS011;57876;47.792;12.960;2023-02-28T12:34:32;4.97;;;1.60;;
70433;SDS011;57876;47.792;12.960;2023-02-28T12:37:01;4.53;;;1.50;;
70433;SDS011;57876;47.792;12.960;2023-02-28T12:39:33;5.20;;;1.90;;
70433;SDS011;57876;47.792;12.960;2023-02-28T12:42:03;5.93;;;1.83;;
70433;SDS011;57876;47.792;12.960;2023-02-28T12:47:10;4.90;;;1.60;;
70433;SDS011;57876;47.792;12.960;2023-02-28T12:49:40;5.28;;;1.77;;
70433;SDS011;57876;47.792;12.960;2023-02-28T12:52:10;4.80;;;1.52;;
70433;SDS011;57876;47.792;12.960;2023-02-28T12:54:44;4.93;;;1.70;;
70433;SDS011;57876;47.792;12.960;2023-02-28T13:00:23;7.07;;;1.85;;
70433;SDS011;57876;47.792;12.960;2023-02-28T13:03:27;5.53;;;1.80;;
70433;SDS011;57876;47.792;12.960;2023-02-28T13:05:59;5.13;;;1.58;;
70433;SDS011;57876;47.792;12.960;2023-02-28T13:11:42;5.13;;;1.80;;
70433;SDS011;57876;47.792;12.960;2023-02-28T13:14:28;5.53;;;1.90;;
70433;SDS011;57876;47.792;12.960;2023-02-28T13:19:27;5.50;;;1.65;;
70433;SDS011;57876;47.792;12.960;2023-02-28T13:21:55;5.43;;;1.83;;
70433;SDS011;57876;47.792;12.960;2023-02-28T13:34:32;5.47;;;1.88;;
70433;SDS011;57876;47.792;12.960;2023-02-28T13:45:19;6.32;;;1.65;;
70433;SDS011;57876;47.792;12.960;2023-02-28T13:48:03;5.60;;;2.00;;
70433;SDS011;57876;47.792;12.960;2023-02-28T13:50:38;5.43;;;1.70;;
70433;SDS011;57876;47.792;12.960;2023-02-28T14:06:52;5.97;;;2.20;;
70433;SDS011;57876;47.792;12.960;2023-02-28T14:09:27;5.72;;;2.05;;
70433;SDS011;57876;47.792;12.960;2023-02-28T14:18:11;5.87;;;1.90;;
70433;SDS011;57876;47.792;12.960;2023-02-28T14:20:40;5.63;;;1.88;;
70433;SDS011;57876;47.792;12.960;2023-02-28T14:26:02;5.93;;;2.10;;
70433;SDS011;57876;47.792;12.960;2023-02-28T14:28:45;6.30;;;1.80;;
70433;SDS011;57876;47.792;12.960;2023-02-28T14:31:35;6.23;;;1.77;;
70433;SDS011;57876;47.792;12.960;2023-02-28T14:36:57;5.75;;;2.00;;
70433;SDS011;57876;47.792;12.960;2023-02-28T14:39:24;7.20;;;2.42;;
70433;SDS011;57876;47.792;12.960;2023-02-28T14:41:51;5.20;;;1.77;;
70433;SDS011;57876;47.792;12.960;2023-02-28T14:44:23;6.00;;;1.93;;
70433;SDS011;57876;47.792;12.960;2023-02-28T14:46:53;5.28;;;1.98;;
70433;SDS011;57876;47.792;12.960;2023-02-28T14:49:42;5.77;;;2.00;;
70433;SDS011;57876;47.792;12.960;2023-02-28T14:52:15;6.72;;;2.67;;
70433;SDS011;57876;47.792;12.960;2023-02-28T14:54:43;6.00;;;2.47;;
70433;SDS011;57876;47.792;12.960;2023-02-28T14:57:26;6.00;;;2.33;;
70433;SDS011;57876;47.792;12.960;2023-02-28T15:02:24;6.70;;;2.40;;
70433;SDS011;57876;47.792;12.960;2023-02-28T15:04:54;7.72;;;3.13;;
70433;SDS011;57876;47.792;12.960;2023-02-28T15:07:20;6.07;;;2.40;;
70433;SDS011;57876;47.792;12.960;2023-02-28T15:10:06;5.65;;;2.35;;
70433;SDS011;57876;47.792;12.960;2023-02-28T15:12:35;6.68;;;2.60;;
70433;SDS011;57876;47.792;12.960;2023-02-28T15:15:01;6.53;;;2.63;;
70433;SDS011;57876;47.792;12.960;2023-02-28T15:17:25;7.90;;;2.63;;
70433;SDS011;57876;47.792;12.960;2023-02-28T15:19:51;6.53;;;2.83;;
70433;SDS011;57876;47.792;12.960;2023-02-28T15:22:19;6.13;;;2.47;;
70433;SDS011;57876;47.792;12.960;2023-02-28T15:24:59;11.57;;;2.90;;
70433;SDS011;57876;47.792;12.960;2023-02-28T15:27:25;6.57;;;2.60;;
70433;SDS011;57876;47.792;12.960;2023-02-28T15:29:56;6.63;;;2.60;;
70433;SDS011;57876;47.792;12.960;2023-02-28T15:32:24;6.20;;;2.50;;
70433;SDS011;57876;47.792;12.960;2023-02-28T15:34:52;7.15;;;2.95;;
70433;SDS011;57876;47.792;12.960;2023-02-28T15:42:57;6.68;;;2.80;;
70433;SDS011;57876;47.792;12.960;2023-02-28T15:45:37;7.32;;;2.55;;
70433;SDS011;57876;47.792;12.960;2023-02-28T15:51:08;6.57;;;2.73;;
70433;SDS011;57876;47.792;12.960;2023-02-28T15:53:51;6.18;;;2.70;;
70433;SDS011;57876;47.792;12.960;2023-02-28T15:56:26;5.97;;;2.53;;
70433;SDS011;57876;47.792;12.960;2023-02-28T15:59:02;6.15;;;2.20;;
70433;SDS011;57876;47.792;12.960;2023-02-28T16:01:30;6.30;;;2.50;;
70433;SDS011;57876;47.792;12.960;2023-02-28T16:04:01;6.13;;;2.50;;
70433;SDS011;57876;47.792;12.960;2023-02-28T16:07:04;6.10;;;2.63;;
70433;SDS011;57876;47.792;12.960;2023-02-28T16:10:12;5.65;;;2.45;;
70433;SDS011;57876;47.792;12.960;2023-02-28T16:16:00;6.28;;;2.58;;
70433;SDS011;57876;47.792;12.960;2023-02-28T16:18:25;6.67;;;2.70;;
70433;SDS011;57876;47.792;12.960;2023-02-28T16:20:49;5.70;;;2.53;;
70433;SDS011;57876;47.792;12.960;2023-02-28T16:23:14;6.53;;;2.40;;
70433;SDS011;57876;47.792;12.960;2023-02-28T16:25:39;6.83;;;2.73;;
70433;SDS011;57876;47.792;12.960;2023-02-28T16:28:08;5.97;;;2.40;;
70433;SDS011;57876;47.792;12.960;2023-02-28T16:30:43;6.50;;;2.38;;
70433;SDS011;57876;47.792;12.960;2023-02-28T16:33:07;5.90;;;2.27;;
70433;SDS011;57876;47.792;12.960;2023-02-28T16:35:33;6.13;;;2.50;;
70433;SDS011;57876;47.792;12.960;2023-02-28T16:37:57;5.87;;;2.33;;
70433;SDS011;57876;47.792;12.960;2023-02-28T16:40:22;6.20;;;2.60;;
70433;SDS011;57876;47.792;12.960;2023-02-28T16:42:50;7.10;;;2.72;;
70433;SDS011;57876;47.792;12.960;2023-02-28T16:45:26;6.57;;;2.45;;
70433;SDS011;57876;47.792;12.960;2023-02-28T16:47:52;6.00;;;2.33;;
70433;SDS011;57876;47.792;12.960;2023-02-28T16:50:21;7.00;;;2.30;;
70433;SDS011;57876;47.792;12.960;2023-02-28T16:52:49;5.95;;;2.20;;
70433;SDS011;57876;47.792;12.960;2023-02-28T16:55:16;6.68;;;2.53;;
70433;SDS011;57876;47.792;12.960;2023-02-28T16:57:40;6.40;;;2.50;;
70433;SDS011;57876;47.792;12.960;2023-02-28T17:00:07;6.22;;;2.67;;
70433;SDS011;57876;47.792;12.960;2023-02-28T17:02:36;5.90;;;2.65;;
70433;SDS011;57876;47.792;12.960;2023-02-28T17:05:00;6.10;;;2.50;;
70433;SDS011;57876;47.792;12.960;2023-02-28T17:07:25;6.70;;;2.20;;
70433;SDS011;57876;47.792;12.960;2023-02-28T17:09:49;6.60;;;2.73;;
70433;SDS011;57876;47.792;12.960;2023-02-28T17:12:14;5.90;;;2.55;;